createdAt,value
2017-11-25T00:01:26.763Z,6.63
2017-11-25T00:03:54.956Z,6.66
2017-11-25T00:06:23.924Z,6.67
2017-11-25T00:08:52.106Z,6.70
2017-11-25T00:11:20.329Z,6.68
2017-11-25T00:13:48.545Z,6.65
2017-11-25T00:16:16.737Z,6.57
2017-11-25T00:18:44.902Z,6.58
2017-11-25T00:21:13.078Z,6.58
2017-11-25T00:23:41.268Z,6.58
2017-11-25T00:26:10.227Z,6.56
2017-11-25T00:28:38.450Z,6.52
2017-11-25T00:31:07.388Z,6.50
2017-11-25T00:33:35.569Z,6.52
2017-11-25T00:36:03.769Z,6.47
2017-11-25T00:38:31.940Z,6.43
2017-11-25T00:41:00.124Z,6.41
2017-11-25T00:43:28.304Z,6.44
2017-11-25T00:45:57.351Z,6.43
2017-11-25T00:48:25.529Z,6.41
2017-11-25T00:50:53.760Z,6.39
2017-11-25T00:53:22.741Z,6.32
2017-11-25T00:55:50.914Z,6.27
2017-11-25T00:58:19.104Z,6.21
2017-11-25T01:00:48.052Z,6.18
2017-11-25T01:03:16.232Z,6.14
2017-11-25T01:05:44.458Z,6.14
2017-11-25T01:08:12.680Z,6.07
2017-11-25T01:10:40.880Z,6.02
2017-11-25T01:13:09.071Z,6.00
2017-11-25T01:15:38.035Z,5.89
2017-11-25T01:18:06.283Z,5.89
2017-11-25T01:20:34.479Z,5.86
2017-11-25T01:23:04.189Z,5.86
2017-11-25T01:25:32.370Z,5.87
2017-11-25T01:28:00.576Z,5.87
2017-11-25T01:30:29.508Z,5.80
2017-11-25T01:32:57.696Z,5.73
2017-11-25T01:35:25.867Z,5.75
2017-11-25T01:37:54.081Z,5.73
2017-11-25T01:40:23.064Z,5.66
2017-11-25T01:42:51.236Z,5.70
2017-11-25T01:45:19.408Z,5.60
2017-11-25T01:47:47.578Z,5.46
2017-11-25T01:50:15.814Z,5.45
2017-11-25T01:52:44.013Z,5.38
2017-11-25T01:55:12.980Z,5.41
2017-11-25T01:57:41.228Z,5.36
2017-11-25T02:00:10.221Z,5.34
2017-11-25T02:02:39.163Z,5.26
2017-11-25T02:05:07.354Z,5.23
2017-11-25T02:07:35.540Z,5.21
2017-11-25T02:10:03.747Z,5.23
2017-11-25T02:12:32.685Z,5.15
2017-11-25T02:15:00.860Z,5.07
2017-11-25T02:17:29.045Z,5.02
2017-11-25T02:19:57.223Z,5.00
2017-11-25T02:22:25.431Z,4.96
2017-11-25T02:24:54.391Z,4.92
2017-11-25T02:27:22.561Z,4.88
2017-11-25T02:29:50.745Z,4.84
2017-11-25T02:32:18.938Z,4.80
2017-11-25T02:34:47.900Z,4.75
2017-11-25T02:37:16.082Z,4.74
2017-11-25T02:39:44.266Z,4.76
2017-11-25T02:42:12.440Z,4.75
2017-11-25T02:44:40.625Z,4.74
2017-11-25T02:47:08.817Z,4.70
2017-11-25T02:49:37.792Z,4.63
2017-11-25T02:52:05.967Z,4.60
2017-11-25T02:54:34.140Z,4.61
2017-11-25T02:57:02.342Z,4.62
2017-11-25T02:59:31.306Z,4.53
2017-11-25T03:01:59.472Z,4.53
2017-11-25T03:04:27.656Z,4.55
2017-11-25T03:06:55.833Z,4.47
2017-11-25T03:09:24.004Z,4.49
2017-11-25T03:11:52.177Z,4.47
2017-11-25T03:14:20.380Z,4.44
2017-11-25T03:16:49.319Z,4.41
2017-11-25T03:19:17.502Z,4.40
2017-11-25T03:21:45.695Z,4.37
2017-11-25T03:24:13.871Z,4.35
2017-11-25T03:26:42.057Z,4.30
2017-11-25T03:29:11.016Z,4.26
2017-11-25T03:31:39.192Z,4.23
2017-11-25T03:34:07.369Z,4.19
2017-11-25T03:36:35.569Z,4.17
2017-11-25T03:39:03.867Z,4.12
2017-11-25T03:41:32.044Z,4.12
2017-11-25T03:44:00.980Z,4.02
2017-11-25T03:46:29.161Z,3.97
2017-11-25T03:48:57.378Z,3.88
2017-11-25T03:51:26.350Z,3.85
2017-11-25T03:53:54.541Z,3.79
2017-11-25T03:56:23.485Z,3.74
2017-11-25T03:58:51.692Z,3.71
2017-11-25T04:01:19.871Z,3.74
2017-11-25T04:03:48.045Z,3.67
2017-11-25T04:06:16.222Z,3.68
2017-11-25T04:08:44.415Z,3.62
2017-11-25T04:11:13.368Z,3.59
2017-11-25T04:13:41.562Z,3.59
2017-11-25T04:16:09.775Z,3.60
2017-11-25T04:18:37.941Z,3.59
2017-11-25T04:21:06.131Z,3.61
2017-11-25T04:23:34.293Z,3.60
2017-11-25T04:26:02.472Z,3.59
2017-11-25T04:28:30.673Z,3.58
2017-11-25T04:30:58.853Z,3.62
2017-11-25T04:33:27.021Z,3.63
2017-11-25T04:35:55.200Z,3.61
2017-11-25T04:38:23.378Z,3.61
2017-11-25T04:40:51.580Z,3.61
2017-11-25T04:43:19.781Z,3.69
2017-11-25T04:45:47.976Z,3.76
2017-11-25T04:48:16.136Z,3.68
2017-11-25T04:50:44.343Z,3.62
2017-11-25T04:53:12.546Z,3.59
2017-11-25T04:55:41.481Z,3.61
2017-11-25T04:58:09.668Z,3.56
2017-11-25T05:00:38.053Z,3.50
2017-11-25T05:03:06.236Z,3.47
2017-11-25T05:05:34.451Z,3.48
2017-11-25T05:08:02.643Z,3.48
2017-11-25T05:10:31.570Z,3.49
2017-11-25T05:12:59.784Z,3.51
2017-11-25T05:15:27.969Z,3.58
2017-11-25T05:17:56.184Z,3.57
2017-11-25T05:20:24.353Z,3.56
2017-11-25T05:22:52.524Z,3.56
2017-11-25T05:25:20.690Z,3.52
2017-11-25T05:27:49.636Z,3.49
2017-11-25T05:30:17.819Z,3.53
2017-11-25T05:32:45.992Z,3.53
2017-11-25T05:35:14.183Z,3.51
2017-11-25T05:37:43.121Z,3.51
2017-11-25T05:40:11.412Z,3.52
2017-11-25T05:42:39.628Z,3.46
2017-11-25T05:45:07.809Z,3.37
2017-11-25T05:47:36.756Z,3.35
2017-11-25T05:50:04.954Z,3.21
2017-11-25T05:52:33.155Z,3.12
2017-11-25T05:55:01.328Z,3.03
2017-11-25T05:57:29.504Z,3.01
2017-11-25T05:59:58.446Z,3.04
2017-11-25T06:02:26.621Z,3.08
2017-11-25T06:04:54.788Z,3.09
2017-11-25T06:07:22.953Z,3.12
2017-11-25T06:09:51.120Z,3.14
2017-11-25T06:12:19.305Z,3.23
2017-11-25T06:14:47.463Z,3.26
2017-11-25T06:17:15.635Z,3.25
2017-11-25T06:19:44.592Z,3.28
2017-11-25T06:22:12.772Z,3.21
2017-11-25T06:24:40.969Z,3.22
2017-11-25T06:27:09.925Z,3.24
2017-11-25T06:29:38.102Z,3.24
2017-11-25T06:32:06.309Z,3.30
2017-11-25T06:34:35.301Z,3.30
2017-11-25T06:37:04.269Z,3.27
2017-11-25T06:39:32.465Z,3.28
2017-11-25T06:42:01.443Z,3.29
2017-11-25T06:44:29.627Z,3.34
2017-11-25T06:46:57.858Z,3.36
2017-11-25T06:49:26.043Z,3.39
2017-11-25T06:51:54.217Z,3.44
2017-11-25T06:54:22.391Z,3.50
2017-11-25T06:56:50.593Z,3.56
2017-11-25T06:59:18.780Z,3.64
2017-11-25T07:01:47.724Z,3.70
2017-11-25T07:04:15.893Z,3.70
2017-11-25T07:06:44.059Z,3.74
2017-11-25T07:09:12.231Z,3.72
2017-11-25T07:11:40.407Z,3.75
2017-11-25T07:14:08.595Z,3.73
2017-11-25T07:16:36.790Z,3.76
2017-11-25T07:19:04.967Z,3.83
2017-11-25T07:21:33.144Z,3.89
2017-11-25T07:24:01.310Z,4.01
2017-11-25T07:26:29.476Z,4.12
2017-11-25T07:28:57.660Z,4.17
2017-11-25T07:31:25.852Z,4.26
2017-11-25T07:33:54.043Z,4.40
2017-11-25T07:36:22.243Z,4.52
2017-11-25T07:38:50.414Z,4.60
2017-11-25T07:41:18.588Z,4.74
2017-11-25T07:43:46.749Z,4.86
2017-11-25T07:46:15.709Z,4.95
2017-11-25T07:48:43.904Z,4.97
2017-11-25T07:51:12.067Z,5.02
2017-11-25T07:53:40.243Z,5.11
2017-11-25T07:56:08.423Z,5.24
2017-11-25T07:58:36.600Z,5.33
2017-11-25T08:01:04.784Z,5.44
2017-11-25T08:03:33.737Z,5.48
2017-11-25T08:06:01.910Z,5.51
2017-11-25T08:08:30.099Z,5.51
2017-11-25T08:10:58.297Z,5.50
2017-11-25T08:13:27.247Z,5.28
2017-11-25T08:15:55.415Z,5.34
2017-11-25T08:18:23.589Z,5.17
2017-11-25T08:20:51.767Z,5.20
2017-11-25T08:23:19.932Z,5.21
2017-11-25T08:25:48.116Z,5.37
2017-11-25T08:28:16.394Z,4.97
2017-11-25T08:30:44.615Z,5.10
2017-11-25T08:33:13.594Z,5.21
2017-11-25T08:35:41.789Z,5.13
2017-11-25T08:38:10.830Z,5.23
2017-11-25T08:40:39.016Z,5.45
2017-11-25T08:43:07.199Z,5.57
2017-11-25T08:45:35.378Z,5.85
2017-11-25T08:48:03.582Z,6.00
2017-11-25T08:50:32.526Z,6.26
2017-11-25T08:53:00.710Z,6.28
2017-11-25T08:55:28.879Z,6.51
2017-11-25T08:57:57.103Z,6.64
2017-11-25T09:00:26.041Z,6.58
2017-11-25T09:02:54.221Z,6.60
2017-11-25T09:05:22.392Z,6.77
2017-11-25T09:07:50.562Z,7.02
2017-11-25T09:10:18.818Z,7.30
2017-11-25T09:12:46.998Z,7.55
2017-11-25T09:15:15.196Z,7.77
2017-11-25T09:17:43.366Z,7.94
2017-11-25T09:20:11.559Z,8.20
2017-11-25T09:22:39.724Z,8.43
2017-11-25T09:25:07.900Z,8.64
2017-11-25T09:27:36.082Z,8.74
2017-11-25T09:30:04.291Z,8.79
2017-11-25T09:32:33.253Z,8.79
2017-11-25T09:35:01.434Z,8.87
2017-11-25T09:37:29.598Z,8.92
2017-11-25T09:39:57.762Z,9.24
2017-11-25T09:42:25.948Z,9.65
2017-11-25T09:44:54.196Z,10.09
2017-11-25T09:47:22.389Z,10.45
2017-11-25T09:49:50.590Z,10.73
2017-11-25T09:52:18.797Z,10.68
2017-11-25T09:54:47.773Z,11.02
2017-11-25T09:57:16.758Z,11.36
2017-11-25T09:59:44.934Z,11.71
2017-11-25T10:02:13.114Z,11.94
2017-11-25T10:04:42.063Z,12.12
2017-11-25T10:07:10.252Z,12.20
2017-11-25T10:09:38.454Z,12.54
2017-11-25T10:12:06.624Z,12.62
2017-11-25T10:14:34.807Z,12.75
2017-11-25T10:17:03.758Z,12.84
2017-11-25T10:19:31.944Z,13.24
2017-11-25T10:22:00.120Z,13.47
2017-11-25T10:24:28.285Z,14.01
2017-11-25T10:26:57.374Z,14.31
2017-11-25T10:29:25.548Z,14.85
2017-11-25T10:31:53.713Z,15.36
2017-11-25T10:34:21.882Z,15.96
2017-11-25T10:36:50.149Z,16.27
2017-11-25T10:39:18.323Z,15.81
2017-11-25T10:41:46.503Z,15.69
2017-11-25T10:44:14.667Z,15.39
2017-11-25T10:46:42.853Z,14.96
2017-11-25T10:49:11.045Z,14.65
2017-11-25T10:51:39.222Z,15.09
2017-11-25T10:54:07.390Z,15.19
2017-11-25T10:56:35.570Z,14.85
2017-11-25T10:59:03.754Z,13.79
2017-11-25T11:01:31.941Z,13.21
2017-11-25T11:04:00.172Z,12.26
2017-11-25T11:06:28.344Z,11.87
2017-11-25T11:08:56.530Z,11.73
2017-11-25T11:11:24.713Z,11.62
2017-11-25T11:13:52.904Z,11.55
2017-11-25T11:16:21.104Z,11.10
2017-11-25T11:18:49.300Z,11.01
2017-11-25T11:21:18.242Z,10.80
2017-11-25T11:23:46.407Z,10.66
2017-11-25T11:26:14.587Z,10.72
2017-11-25T11:28:42.771Z,10.61
2017-11-25T11:31:12.470Z,10.63
2017-11-25T11:33:40.639Z,10.63
2017-11-25T11:36:08.820Z,10.51
2017-11-25T11:38:36.987Z,10.36
2017-11-25T11:41:05.166Z,10.35
2017-11-25T11:43:33.356Z,10.19
2017-11-25T11:46:01.526Z,10.07
2017-11-25T11:48:29.682Z,9.91
2017-11-25T11:50:57.861Z,9.99
2017-11-25T11:53:26.047Z,9.79
2017-11-25T11:55:54.206Z,9.84
2017-11-25T11:58:22.383Z,9.87
2017-11-25T12:00:50.594Z,9.96
2017-11-25T12:03:18.780Z,10.15
2017-11-25T12:05:46.959Z,10.28
2017-11-25T12:08:15.912Z,10.40
2017-11-25T12:10:44.098Z,10.47
2017-11-25T12:13:12.296Z,10.50
2017-11-25T12:15:41.279Z,10.38
2017-11-25T12:18:09.466Z,10.33
2017-11-25T12:20:37.646Z,10.34
2017-11-25T12:23:06.584Z,10.42
2017-11-25T12:25:34.750Z,10.34
2017-11-25T12:28:02.939Z,10.29
2017-11-25T12:30:31.122Z,10.27
2017-11-25T12:32:59.296Z,10.24
2017-11-25T12:35:27.464Z,10.22
2017-11-25T12:37:55.650Z,10.18
2017-11-25T12:40:23.815Z,10.15
2017-11-25T12:42:51.989Z,10.13
2017-11-25T12:45:20.158Z,10.13
2017-11-25T12:47:48.331Z,10.11
2017-11-25T12:50:16.503Z,10.07
2017-11-25T12:52:44.664Z,10.06
2017-11-25T12:55:12.855Z,10.03
2017-11-25T12:57:41.021Z,10.00
2017-11-25T13:00:09.187Z,9.95
2017-11-25T13:02:37.352Z,9.91
2017-11-25T13:05:05.523Z,9.93
2017-11-25T13:07:34.494Z,9.89
2017-11-25T13:10:03.437Z,9.92
2017-11-25T13:12:32.337Z,9.89
2017-11-25T13:15:00.530Z,9.84
2017-11-25T13:17:28.696Z,9.86
2017-11-25T13:19:56.874Z,9.86
2017-11-25T13:22:25.043Z,9.78
2017-11-25T13:24:53.215Z,9.78
2017-11-25T13:27:21.410Z,9.79
2017-11-25T13:29:49.594Z,9.79
2017-11-25T13:32:17.766Z,9.78
2017-11-25T13:34:45.972Z,9.83
2017-11-25T13:37:14.912Z,9.79
2017-11-25T13:39:43.096Z,9.73
2017-11-25T13:42:11.351Z,9.73
2017-11-25T13:44:39.538Z,9.76
2017-11-25T13:47:07.785Z,9.72
2017-11-25T13:49:35.962Z,9.69
2017-11-25T13:52:04.130Z,9.72
2017-11-25T13:54:32.320Z,9.69
2017-11-25T13:57:00.507Z,9.67
2017-11-25T13:59:28.672Z,9.72
2017-11-25T14:01:56.877Z,9.68
2017-11-25T14:04:25.075Z,9.68
2017-11-25T14:06:54.035Z,9.58
2017-11-25T14:09:22.208Z,9.59
2017-11-25T14:11:50.380Z,9.61
2017-11-25T14:14:19.320Z,9.62
2017-11-25T14:16:48.253Z,9.63
2017-11-25T14:19:16.415Z,9.67
2017-11-25T14:21:44.591Z,9.65
2017-11-25T14:24:12.872Z,9.66
2017-11-25T14:26:41.055Z,9.56
2017-11-25T14:29:09.256Z,9.53
2017-11-25T14:31:37.425Z,9.53
2017-11-25T14:34:05.601Z,9.55
2017-11-25T14:36:33.760Z,9.63
2017-11-25T14:39:02.734Z,9.77
2017-11-25T14:41:30.902Z,9.78
2017-11-25T14:43:59.073Z,9.87
2017-11-25T14:46:27.234Z,10.17
2017-11-25T14:48:55.409Z,10.31
2017-11-25T14:51:23.601Z,10.38
2017-11-25T14:53:51.784Z,10.34
2017-11-25T14:56:19.959Z,10.33
2017-11-25T14:58:48.208Z,10.35
2017-11-25T15:01:16.384Z,10.38
2017-11-25T15:03:44.567Z,10.44
2017-11-25T15:06:12.792Z,10.44
2017-11-25T15:08:41.762Z,10.41
2017-11-25T15:11:10.008Z,10.39
2017-11-25T15:13:38.224Z,10.29
2017-11-25T15:16:07.216Z,10.21
2017-11-25T15:18:35.399Z,10.12
2017-11-25T15:21:03.640Z,10.04
2017-11-25T15:23:31.823Z,9.88
2017-11-25T15:26:00.027Z,9.79
2017-11-25T15:28:28.226Z,9.72
2017-11-25T15:30:57.164Z,9.64
2017-11-25T15:33:25.342Z,9.54
2017-11-25T15:35:53.535Z,9.52
2017-11-25T15:38:21.726Z,9.52
2017-11-25T15:40:49.911Z,9.49
2017-11-25T15:43:18.109Z,9.45
2017-11-25T15:45:47.103Z,9.41
2017-11-25T15:48:16.055Z,9.41
2017-11-25T15:50:44.272Z,9.38
2017-11-25T15:53:13.274Z,9.36
2017-11-25T15:55:41.449Z,9.35
2017-11-25T15:58:09.646Z,9.34
2017-11-25T16:00:37.847Z,9.36
2017-11-25T16:03:06.041Z,9.38
2017-11-25T16:05:34.225Z,9.46
2017-11-25T16:08:03.172Z,9.37
2017-11-25T16:10:31.382Z,9.24
2017-11-25T16:12:59.571Z,9.29
2017-11-25T16:15:28.512Z,9.17
2017-11-25T16:17:56.704Z,9.13
2017-11-25T16:20:24.902Z,9.11
2017-11-25T16:22:53.095Z,9.05
2017-11-25T16:25:22.038Z,9.03
2017-11-25T16:27:50.210Z,9.10
2017-11-25T16:30:18.379Z,9.24
2017-11-25T16:32:46.564Z,9.15
2017-11-25T16:35:14.743Z,9.13
2017-11-25T16:37:42.961Z,9.10
2017-11-25T16:40:11.899Z,9.08
2017-11-25T16:42:40.079Z,9.11
2017-11-25T16:45:08.450Z,9.12
2017-11-25T16:47:36.684Z,9.15
2017-11-25T16:50:05.633Z,9.19
2017-11-25T16:52:33.830Z,9.17
2017-11-25T16:55:02.944Z,9.19
2017-11-25T16:57:31.997Z,9.19
2017-11-25T17:00:00.192Z,9.20
2017-11-25T17:02:28.389Z,9.20
2017-11-25T17:04:57.336Z,9.21
2017-11-25T17:07:25.526Z,9.21
2017-11-25T17:09:53.716Z,9.23
2017-11-25T17:12:22.703Z,9.26
2017-11-25T17:14:50.906Z,9.30
2017-11-25T17:17:19.853Z,9.33
2017-11-25T17:19:48.034Z,9.38
2017-11-25T17:22:16.341Z,9.40
2017-11-25T17:24:45.287Z,9.44
2017-11-25T17:27:13.483Z,9.47
2017-11-25T17:29:41.711Z,9.46
2017-11-25T17:32:10.051Z,9.50
2017-11-25T17:34:38.234Z,9.53
2017-11-25T17:37:07.182Z,9.59
2017-11-25T17:39:35.368Z,9.59
2017-11-25T17:42:03.561Z,9.58
2017-11-25T17:44:31.850Z,9.63
2017-11-25T17:47:00.798Z,9.60
2017-11-25T17:49:28.992Z,9.74
2017-11-25T17:51:57.166Z,9.77
2017-11-25T17:54:25.337Z,9.74
2017-11-25T17:56:53.500Z,9.74
2017-11-25T17:59:21.667Z,9.77
2017-11-25T18:01:49.847Z,9.86
2017-11-25T18:04:18.020Z,9.89
2017-11-25T18:06:46.198Z,9.91
2017-11-25T18:09:14.376Z,10.07
2017-11-25T18:11:42.555Z,10.09
2017-11-25T18:14:11.499Z,10.21
2017-11-25T18:16:39.680Z,10.22
2017-11-25T18:19:07.870Z,10.42
2017-11-25T18:21:36.126Z,10.44
2017-11-25T18:24:05.401Z,10.49
2017-11-25T18:26:33.609Z,10.55
2017-11-25T18:29:01.832Z,10.58
2017-11-25T18:31:30.006Z,10.58
2017-11-25T18:33:58.189Z,10.68
2017-11-25T18:36:26.359Z,10.64
2017-11-25T18:38:54.523Z,10.66
2017-11-25T18:41:22.729Z,10.61
2017-11-25T18:43:51.793Z,10.70
2017-11-25T18:46:20.024Z,10.88
2017-11-25T18:48:48.216Z,10.93
2017-11-25T18:51:16.446Z,11.04
2017-11-25T18:53:44.640Z,10.89
2017-11-25T18:56:13.605Z,10.81
2017-11-25T18:58:41.819Z,10.76
2017-11-25T19:01:09.990Z,10.65
2017-11-25T19:03:38.180Z,10.46
2017-11-25T19:06:06.396Z,10.51
2017-11-25T19:08:34.627Z,10.41
2017-11-25T19:11:02.850Z,10.47
2017-11-25T19:13:31.030Z,10.50
2017-11-25T19:15:59.243Z,10.42
2017-11-25T19:18:27.490Z,10.35
2017-11-25T19:20:56.441Z,10.33
2017-11-25T19:23:24.720Z,10.20
2017-11-25T19:25:52.908Z,10.15
2017-11-25T19:28:21.109Z,10.09
2017-11-25T19:30:49.300Z,10.01
2017-11-25T19:33:18.278Z,9.95
2017-11-25T19:35:47.241Z,9.94
2017-11-25T19:38:15.463Z,9.83
2017-11-25T19:40:44.418Z,9.78
2017-11-25T19:43:12.604Z,9.79
2017-11-25T19:45:40.862Z,9.78
2017-11-25T19:48:09.035Z,9.79
2017-11-25T19:50:37.216Z,9.68
2017-11-25T19:53:06.187Z,9.55
2017-11-25T19:55:34.383Z,9.52
2017-11-25T19:58:02.572Z,9.51
2017-11-25T20:00:30.742Z,9.48
2017-11-25T20:02:58.956Z,9.39
2017-11-25T20:05:28.004Z,9.48
2017-11-25T20:07:56.182Z,9.45
2017-11-25T20:10:24.424Z,9.41
2017-11-25T20:12:52.660Z,9.32
2017-11-25T20:15:21.640Z,9.31
2017-11-25T20:17:49.817Z,9.44
2017-11-25T20:20:17.999Z,9.36
2017-11-25T20:22:46.199Z,9.28
2017-11-25T20:25:14.417Z,9.26
2017-11-25T20:27:42.615Z,9.24
2017-11-25T20:30:10.812Z,9.18
2017-11-25T20:32:39.819Z,9.17
2017-11-25T20:35:08.777Z,9.14
2017-11-25T20:37:37.019Z,9.18
2017-11-25T20:40:05.334Z,9.13
2017-11-25T20:42:33.578Z,9.15
2017-11-25T20:45:01.781Z,9.14
2017-11-25T20:47:29.996Z,9.37
2017-11-25T20:49:58.188Z,9.33
2017-11-25T20:52:26.432Z,9.32
2017-11-25T20:54:55.369Z,9.29
2017-11-25T20:57:23.545Z,9.35
2017-11-25T20:59:51.801Z,9.32
2017-11-25T21:02:19.971Z,9.37
2017-11-25T21:04:48.173Z,9.32
2017-11-25T21:07:16.368Z,9.23
2017-11-25T21:09:44.572Z,9.22
2017-11-25T21:12:13.569Z,9.30
2017-11-25T21:14:42.548Z,9.15
2017-11-25T21:17:11.552Z,9.26
2017-11-25T21:19:40.553Z,9.20
2017-11-25T21:22:11.233Z,9.17
2017-11-25T21:24:39.472Z,9.12
2017-11-25T21:27:07.750Z,9.08
2017-11-25T21:29:36.480Z,9.11
2017-11-25T21:32:05.160Z,8.96
2017-11-25T21:34:33.837Z,8.92
2017-11-25T21:37:02.750Z,8.86
2017-11-25T21:39:30.990Z,8.87
2017-11-25T21:41:59.177Z,8.79
2017-11-25T21:44:27.390Z,8.76
2017-11-25T21:46:55.640Z,8.69
2017-11-25T21:49:24.508Z,8.72
2017-11-25T21:51:53.167Z,8.65
2017-11-25T21:54:22.142Z,8.82
2017-11-25T21:56:50.362Z,8.81
2017-11-25T21:59:18.554Z,8.73
2017-11-25T22:01:46.721Z,8.71
2017-11-25T22:04:14.981Z,8.74
2017-11-25T22:06:43.167Z,8.79
2017-11-25T22:09:11.327Z,8.67
2017-11-25T22:11:39.497Z,8.71
2017-11-25T22:14:07.712Z,8.65
2017-11-25T22:16:35.884Z,8.60
2017-11-25T22:19:04.083Z,8.66
2017-11-25T22:21:32.283Z,8.63
2017-11-25T22:24:01.254Z,8.64
2017-11-25T22:26:29.474Z,8.56
2017-11-25T22:28:57.661Z,8.53
2017-11-25T22:31:25.908Z,8.52
2017-11-25T22:33:54.949Z,8.54
2017-11-25T22:36:23.223Z,8.46
2017-11-25T22:38:51.451Z,8.40
2017-11-25T22:41:20.484Z,8.38
2017-11-25T22:43:48.712Z,8.39
2017-11-25T22:46:17.702Z,8.38
2017-11-25T22:48:45.879Z,8.28
2017-11-25T22:51:14.887Z,8.47
2017-11-25T22:53:43.895Z,8.44
2017-11-25T22:56:12.227Z,8.35
2017-11-25T22:58:40.412Z,8.36
2017-11-25T23:01:08.779Z,8.29
2017-11-25T23:03:36.978Z,8.34
2017-11-25T23:06:11.012Z,8.22
2017-11-25T23:08:39.235Z,8.22
2017-11-25T23:11:07.513Z,8.16
2017-11-25T23:13:35.717Z,8.17
2017-11-25T23:16:04.854Z,8.18
2017-11-25T23:18:33.075Z,8.18
2017-11-25T23:21:01.335Z,8.10
2017-11-25T23:23:29.576Z,8.06
2017-11-25T23:25:57.836Z,8.06
2017-11-25T23:28:26.116Z,8.03
2017-11-25T23:30:54.355Z,7.98
2017-11-25T23:33:22.553Z,7.95
2017-11-25T23:35:51.532Z,7.94
2017-11-25T23:38:19.772Z,7.88
2017-11-25T23:40:47.993Z,7.93
2017-11-25T23:43:17.053Z,7.86
2017-11-25T23:45:45.271Z,7.82
2017-11-25T23:48:14.238Z,7.81
2017-11-25T23:50:42.510Z,7.85
2017-11-25T23:53:10.788Z,7.81
2017-11-25T23:55:39.025Z,7.75
2017-11-25T23:58:07.313Z,7.76
